Time;durP1;ratioP1;P1;durP2;ratioP2;P2;SDS_P1;SDS_P2;PMS_P1;PMS_P2;Temp;Humidity;BMP_temperature;BMP_pressure;BME280_temperature;BME280_humidity;BME280_pressure;Samples;Min_cycle;Max_cycle;Signal;HPM_P1;HPM_P2
2023/05/29 05:00:14;;;;;;;6.73;5.83;;;16.20;97.20;;;;;;1727306;28;20613;-72
2023/05/29 05:01:04;;;;;;;6.03;5.43;;;16.20;97.20;;;;;;1727270;28;20209;-73
2023/05/29 05:01:56;;;;;;;8.33;5.83;;;16.20;97.20;;;;;;1726618;28;20193;-73
2023/05/29 05:02:49;;;;;;;8.48;6.07;;;16.20;97.20;;;;;;1727027;28;20200;-73
2023/05/29 05:03:41;;;;;;;5.82;5.22;;;16.30;97.20;;;;;;1726750;28;20204;-72
2023/05/29 05:04:32;;;;;;;7.35;5.88;;;16.30;97.20;;;;;;1727343;28;20204;-73
2023/05/29 05:05:23;;;;;;;6.90;5.78;;;16.30;97.20;;;;;;1727264;28;20735;-73
2023/05/29 05:06:16;;;;;;;8.43;6.05;;;16.30;97.20;;;;;;1724183;28;20208;-73
2023/05/29 05:07:08;;;;;;;7.00;5.60;;;16.40;97.20;;;;;;1720380;28;20247;-73
2023/05/29 05:07:59;;;;;;;6.47;5.78;;;16.40;97.20;;;;;;1720490;28;20215;-73
2023/05/29 05:08:51;;;;;;;6.27;5.67;;;16.40;97.20;;;;;;1720514;28;20296;-73
2023/05/29 05:09:42;;;;;;;7.93;6.03;;;16.50;97.20;;;;;;1720458;28;20205;-73
2023/05/29 05:10:33;;;;;;;6.23;5.53;;;16.50;97.20;;;;;;1720428;28;20755;-73
2023/05/29 05:11:25;;;;;;;8.90;5.60;;;16.50;97.20;;;;;;1723105;28;20204;-73
2023/05/29 05:12:16;;;;;;;7.90;5.60;;;16.60;97.20;;;;;;1727430;28;20861;-73
2023/05/29 05:13:07;;;;;;;6.70;5.15;;;16.60;97.20;;;;;;1726753;28;20216;-73
2023/05/29 05:13:59;;;;;;;8.80;5.57;;;16.60;97.20;;;;;;1726904;28;20267;-73
2023/05/29 05:14:49;;;;;;;6.50;5.22;;;16.60;97.20;;;;;;1727299;28;20250;-73
2023/05/29 05:15:42;;;;;;;7.20;6.00;;;16.60;97.20;;;;;;1726991;28;20197;-73
2023/05/29 05:16:33;;;;;;;5.20;4.70;;;16.70;97.20;;;;;;1726336;28;20211;-73
2023/05/29 05:17:25;;;;;;;7.37;5.80;;;16.70;97.20;;;;;;1727139;28;20193;-73
2023/05/29 05:18:16;;;;;;;9.88;5.95;;;16.70;97.20;;;;;;1727365;28;20204;-73
2023/05/29 05:19:07;;;;;;;6.33;5.60;;;16.70;97.20;;;;;;1727208;28;20204;-73
2023/05/29 05:19:58;;;;;;;7.75;5.80;;;16.70;97.20;;;;;;1727337;28;20205;-79
2023/05/29 05:20:50;;;;;;;5.30;4.60;;;16.80;97.20;;;;;;1727078;28;20256;-75
2023/05/29 05:21:40;;;;;;;8.63;5.20;;;16.80;97.20;;;;;;1727276;28;20207;-74
2023/05/29 05:22:32;;;;;;;7.13;5.50;;;16.80;97.20;;;;;;1727165;28;20197;-75
2023/05/29 05:23:23;;;;;;;8.00;5.20;;;16.80;97.20;;;;;;1727259;28;20221;-74
2023/05/29 05:24:15;;;;;;;8.43;5.50;;;16.90;97.20;;;;;;1727176;28;20220;-74
2023/05/29 05:25:06;;;;;;;11.07;5.75;;;16.90;97.20;;;;;;1727085;28;20208;-75
2023/05/29 05:25:58;;;;;;;5.85;5.13;;;16.90;97.20;;;;;;1726569;28;20203;-75
2023/05/29 05:26:48;;;;;;;5.40;4.78;;;16.90;97.20;;;;;;1727133;28;20224;-75
2023/05/29 05:27:40;;;;;;;6.90;5.20;;;17.00;97.20;;;;;;1727166;28;20201;-74
2023/05/29 05:28:31;;;;;;;14.40;5.95;;;17.00;97.20;;;;;;1727169;28;20695;-75
2023/05/29 05:29:22;;;;;;;7.43;5.63;;;17.00;97.20;;;;;;1726989;28;20839;-74
2023/05/29 05:30:14;;;;;;;7.05;5.70;;;17.10;97.20;;;;;;1727045;28;20197;-74
2023/05/29 05:31:07;;;;;;;7.65;5.20;;;17.10;97.20;;;;;;1727127;28;20197;-75
2023/05/29 05:31:58;;;;;;;6.40;5.10;;;17.10;97.20;;;;;;1727254;28;20209;-74
2023/05/29 05:32:50;;;;;;;6.50;4.90;;;17.10;97.20;;;;;;1726852;28;20220;-74
2023/05/29 05:33:41;;;;;;;7.45;5.30;;;17.10;97.20;;;;;;1720502;28;20452;-74
2023/05/29 05:34:32;;;;;;;7.37;4.53;;;17.20;97.20;;;;;;1720375;28;20224;-74
2023/05/29 05:35:23;;;;;;;6.32;4.57;;;17.20;97.20;;;;;;1720420;28;20216;-74
2023/05/29 05:36:15;;;;;;;6.20;5.03;;;17.20;97.20;;;;;;1720204;28;20205;-74
2023/05/29 05:37:07;;;;;;;6.30;5.35;;;17.20;97.20;;;;;;1720418;28;20207;-74
2023/05/29 05:37:58;;;;;;;7.35;5.07;;;17.30;97.20;;;;;;1720317;28;20280;-74
2023/05/29 05:38:49;;;;;;;6.15;4.93;;;17.30;97.20;;;;;;1720462;28;20227;-74
2023/05/29 05:39:41;;;;;;;7.00;5.47;;;17.30;97.20;;;;;;1720430;28;20197;-73
2023/05/29 05:40:32;;;;;;;6.80;5.30;;;17.40;97.20;;;;;;1720271;28;20701;-74
2023/05/29 05:41:24;;;;;;;8.85;5.10;;;17.40;97.20;;;;;;1720377;28;20636;-74
2023/05/29 05:42:14;;;;;;;7.00;4.75;;;17.40;97.20;;;;;;1720335;28;20208;-74
2023/05/29 05:43:07;;;;;;;6.50;5.00;;;17.40;97.20;;;;;;1720496;28;20200;-74
2023/05/29 05:43:57;;;;;;;7.10;5.30;;;17.50;97.20;;;;;;1726463;28;20292;-74
2023/05/29 05:44:49;;;;;;;6.77;5.00;;;17.50;97.20;;;;;;1727121;28;20205;-74
2023/05/29 05:45:42;;;;;;;10.07;5.25;;;17.50;97.20;;;;;;1727101;28;20215;-74
2023/05/29 05:46:35;;;;;;;5.30;4.80;;;17.50;97.20;;;;;;1727258;28;20817;-74
2023/05/29 05:47:27;;;;;;;6.32;5.28;;;17.60;97.20;;;;;;1727056;28;20207;-74
2023/05/29 05:48:19;;;;;;;6.07;4.80;;;17.60;97.20;;;;;;1727169;28;20196;-74
2023/05/29 05:49:10;;;;;;;5.28;4.65;;;17.60;97.20;;;;;;1727106;28;20215;-74
2023/05/29 05:50:02;;;;;;;9.40;5.00;;;17.70;97.20;;;;;;1727201;28;20211;-73
2023/05/29 05:50:52;;;;;;;6.03;5.30;;;17.70;97.20;;;;;;1727044;28;20220;-74
2023/05/29 05:51:44;;;;;;;5.70;4.90;;;17.70;97.20;;;;;;1727228;28;20205;-74
2023/05/29 05:52:35;;;;;;;6.35;5.22;;;17.70;97.20;;;;;;1727243;28;20706;-73
2023/05/29 05:53:26;;;;;;;5.30;4.80;;;17.80;97.20;;;;;;1727029;28;20652;-74
2023/05/29 05:54:17;;;;;;;6.45;4.75;;;17.80;97.20;;;;;;1727122;28;20204;-73
2023/05/29 05:55:09;;;;;;;8.20;5.40;;;17.80;97.20;;;;;;1727101;28;20211;-73
2023/05/29 05:56:00;;;;;;;6.70;4.65;;;17.90;97.20;;;;;;1726834;28;20212;-75
2023/05/29 05:56:52;;;;;;;12.40;5.45;;;17.90;97.20;;;;;;1727922;28;20196;-74
2023/05/29 05:57:43;;;;;;;9.20;5.43;;;17.90;97.20;;;;;;1728358;28;20205;-74
2023/05/29 05:58:34;;;;;;;6.97;4.90;;;18.00;97.20;;;;;;1728348;28;20300;-74
2023/05/29 05:59:25;;;;;;;6.55;5.15;;;18.00;97.20;;;;;;1728287;28;20201;-74
2023/05/29 06:00:18;;;;;;;5.87;5.20;;;18.00;97.20;;;;;;1728032;28;20209;-74
2023/05/29 06:01:09;;;;;;;5.25;4.68;;;18.00;97.20;;;;;;1728279;28;20212;-74
2023/05/29 06:02:03;;;;;;;7.90;5.18;;;18.00;97.20;;;;;;1728352;28;20618;-74
2023/05/29 06:02:54;;;;;;;5.97;4.90;;;18.00;97.20;;;;;;1728266;28;20205;-74
2023/05/29 06:03:45;;;;;;;6.07;5.10;;;18.10;97.20;;;;;;1728265;28;20204;-74
2023/05/29 06:04:36;;;;;;;5.55;4.60;;;18.10;97.20;;;;;;1728304;28;20212;-74
2023/05/29 06:05:28;;;;;;;7.47;5.10;;;18.10;97.20;;;;;;1728272;28;20208;-74
2023/05/29 06:06:19;;;;;;;9.80;4.80;;;18.10;97.20;;;;;;1727900;28;20200;-74
2023/05/29 06:07:11;;;;;;;8.02;5.47;;;18.20;97.20;;;;;;1728096;28;20204;-74
2023/05/29 06:08:01;;;;;;;5.82;4.90;;;18.20;97.20;;;;;;1728286;28;20684;-74
2023/05/29 06:08:53;;;;;;;7.30;4.90;;;18.20;97.20;;;;;;1728323;28;20551;-74
2023/05/29 06:09:44;;;;;;;7.40;5.20;;;18.20;97.20;;;;;;1728217;28;20584;-74
2023/05/29 06:10:35;;;;;;;9.03;4.30;;;18.30;97.20;;;;;;1728120;28;20294;-74
2023/05/29 06:11:26;;;;;;;8.73;5.15;;;18.30;97.20;;;;;;1728164;28;20200;-74
2023/05/29 06:12:18;;;;;;;9.10;5.03;;;18.30;97.20;;;;;;1728174;28;20291;-74
2023/05/29 06:13:09;;;;;;;6.95;4.85;;;18.40;97.20;;;;;;1728070;28;21006;-74
2023/05/29 06:14:00;;;;;;;6.60;5.20;;;18.40;97.20;;;;;;1728186;28;20566;-74
2023/05/29 06:14:51;;;;;;;8.75;5.28;;;18.40;97.20;;;;;;1728188;28;20201;-74
2023/05/29 06:15:43;;;;;;;7.60;4.87;;;18.50;97.20;;;;;;1728102;28;20196;-73
2023/05/29 06:16:34;;;;;;;8.45;5.28;;;18.50;97.20;;;;;;1727840;28;20572;-72
2023/05/29 06:17:27;;;;;;;7.30;5.17;;;18.50;97.20;;;;;;1728150;28;20558;-72
2023/05/29 06:18:18;;;;;;;8.65;5.15;;;18.60;97.20;;;;;;1728287;28;20448;-72
2023/05/29 06:19:10;;;;;;;5.77;5.17;;;18.60;97.20;;;;;;1728228;28;20197;-72
2023/05/29 06:20:00;;;;;;;8.75;5.15;;;18.60;97.20;;;;;;1727747;28;20201;-72
2023/05/29 06:20:52;;;;;;;7.03;5.50;;;18.70;97.20;;;;;;1728141;28;20493;-72
2023/05/29 06:21:43;;;;;;;7.70;4.65;;;18.70;97.20;;;;;;1728104;28;20215;-72
2023/05/29 06:22:35;;;;;;;7.87;4.73;;;18.70;97.20;;;;;;1728243;28;20211;-73
2023/05/29 06:23:25;;;;;;;8.20;5.15;;;18.80;97.20;;;;;;1728311;28;20668;-72
2023/05/29 06:24:17;;;;;;;11.63;5.80;;;18.80;97.20;;;;;;1728278;28;20539;-72
2023/05/29 06:25:09;;;;;;;7.47;4.63;;;18.80;97.20;;;;;;1728214;28;20668;-73
2023/05/29 06:26:01;;;;;;;8.82;5.32;;;18.90;97.20;;;;;;1727760;28;20196;-73
2023/05/29 06:26:52;;;;;;;7.07;4.63;;;18.90;97.20;;;;;;1727870;28;20279;-73
2023/05/29 06:27:43;;;;;;;10.93;5.50;;;18.90;97.20;;;;;;1728236;28;20200;-73
2023/05/29 06:28:35;;;;;;;12.70;6.30;;;18.90;97.20;;;;;;1728246;28;20283;-75
2023/05/29 06:29:26;;;;;;;9.18;4.68;;;19.00;97.20;;;;;;1728219;28;20204;-73
2023/05/29 06:30:17;;;;;;;7.27;5.03;;;19.00;97.20;;;;;;1728032;28;20200;-73
2023/05/29 06:31:08;;;;;;;8.73;4.70;;;19.00;97.20;;;;;;1728029;28;20205;-73
2023/05/29 06:32:00;;;;;;;11.03;5.00;;;19.10;97.20;;;;;;1728218;28;20201;-73
2023/05/29 06:32:52;;;;;;;7.85;4.95;;;19.10;97.20;;;;;;1727646;28;20204;-73
2023/05/29 06:33:44;;;;;;;9.52;4.90;;;19.20;97.20;;;;;;1728086;28;20722;-72
2023/05/29 06:34:34;;;;;;;8.88;4.68;;;19.20;97.20;;;;;;1728122;28;20204;-73
2023/05/29 06:35:26;;;;;;;8.00;5.00;;;19.20;97.20;;;;;;1728148;28;20247;-73
2023/05/29 06:36:17;;;;;;;9.35;5.13;;;19.30;97.20;;;;;;1727803;28;20573;-74
2023/05/29 06:37:08;;;;;;;15.20;5.07;;;19.30;97.20;;;;;;1727937;28;20552;-73
2023/05/29 06:37:59;;;;;;;6.72;4.70;;;19.30;97.20;;;;;;1728037;28;20200;-73
2023/05/29 06:38:51;;;;;;;5.50;4.47;;;19.40;97.20;;;;;;1728041;28;20204;-73
2023/05/29 06:39:44;;;;;;;10.57;5.72;;;19.40;97.20;;;;;;1728139;28;20204;-73
2023/05/29 06:40:36;;;;;;;7.43;5.47;;;19.40;97.20;;;;;;1727611;28;20223;-76
2023/05/29 06:41:27;;;;;;;11.90;5.78;;;19.50;97.20;;;;;;1727940;28;20212;-76
2023/05/29 06:42:18;;;;;;;9.20;5.20;;;19.50;97.20;;;;;;1728105;28;20204;-74
2023/05/29 06:43:09;;;;;;;11.15;6.00;;;19.50;97.20;;;;;;1727975;28;20231;-74
2023/05/29 06:44:01;;;;;;;7.00;5.40;;;19.60;97.20;;;;;;1728138;28;20200;-76
2023/05/29 06:44:51;;;;;;;11.38;4.70;;;19.60;97.20;;;;;;1728036;28;20265;-74
2023/05/29 06:45:43;;;;;;;9.43;5.27;;;19.60;97.20;;;;;;1727307;28;20196;-74
2023/05/29 06:46:34;;;;;;;12.13;5.43;;;19.60;97.20;;;;;;1727646;28;20699;-74
2023/05/29 06:47:26;;;;;;;17.03;5.83;;;19.70;97.20;;;;;;1727935;28;20576;-74
2023/05/29 06:48:18;;;;;;;8.48;5.20;;;19.70;97.20;;;;;;1727975;28;20196;-74
2023/05/29 06:49:10;;;;;;;11.88;5.35;;;19.70;97.20;;;;;;1728045;28;20205;-74
2023/05/29 06:50:02;;;;;;;7.50;5.22;;;19.80;97.20;;;;;;1728257;28;20203;-74
2023/05/29 06:50:54;;;;;;;8.03;6.30;;;19.80;97.20;;;;;;1728790;28;20252;-74
2023/05/29 06:51:44;;;;;;;10.88;6.25;;;19.80;97.20;;;;;;1728309;28;20448;-74
2023/05/29 06:52:36;;;;;;;9.77;5.47;;;19.80;97.20;;;;;;1728198;28;20232;-74
2023/05/29 06:53:27;;;;;;;8.73;5.82;;;19.80;97.20;;;;;;1728245;28;20223;-74
2023/05/29 06:54:19;;;;;;;6.60;5.50;;;19.90;97.20;;;;;;1728182;28;20200;-74
2023/05/29 06:55:10;;;;;;;9.88;5.57;;;19.90;97.20;;;;;;1728052;28;20446;-74
2023/05/29 06:56:01;;;;;;;6.23;5.07;;;19.90;97.20;;;;;;1728317;28;20671;-74
2023/05/29 06:56:52;;;;;;;6.63;4.93;;;19.90;97.20;;;;;;1728336;28;20204;-74
2023/05/29 06:57:44;;;;;;;10.07;5.45;;;19.90;97.20;;;;;;1728373;28;20196;-76
2023/05/29 06:58:35;;;;;;;8.05;5.35;;;20.00;97.20;;;;;;1728247;28;20212;-76
2023/05/29 06:59:27;;;;;;;9.45;5.53;;;20.00;97.20;;;;;;1728336;28;20259;-76
2023/05/29 07:00:18;;;;;;;8.05;5.45;;;20.00;97.20;;;;;;1727585;28;20212;-76
2023/05/29 07:01:10;;;;;;;9.85;6.30;;;20.10;97.20;;;;;;1727965;28;20224;-76
2023/05/29 07:02:01;;;;;;;8.45;5.13;;;20.10;97.20;;;;;;1728130;28;20201;-76
2023/05/29 07:02:53;;;;;;;6.97;5.40;;;20.10;97.20;;;;;;1728825;28;20200;-76
2023/05/29 07:03:46;;;;;;;5.45;4.90;;;20.20;97.20;;;;;;1728062;28;20200;-76
2023/05/29 07:04:38;;;;;;;5.97;4.63;;;20.20;97.20;;;;;;1728952;28;20262;-74
2023/05/29 07:05:29;;;;;;;6.10;4.95;;;20.30;97.20;;;;;;1728669;28;20247;-74
2023/05/29 07:06:21;;;;;;;7.23;5.67;;;20.30;97.20;;;;;;1728778;28;20208;-74
2023/05/29 07:07:12;;;;;;;5.57;4.80;;;20.30;97.20;;;;;;1728365;28;20466;-75
2023/05/29 07:08:04;;;;;;;9.20;6.00;;;20.30;97.20;;;;;;1728619;28;20196;-74
2023/05/29 07:08:54;;;;;;;9.13;5.10;;;20.30;97.20;;;;;;1728923;28;20204;-74
2023/05/29 07:09:46;;;;;;;7.80;5.23;;;20.40;97.20;;;;;;1728496;28;20205;-74
2023/05/29 07:10:37;;;;;;;6.38;5.55;;;20.40;97.20;;;;;;1728617;28;20247;-74
2023/05/29 07:11:29;;;;;;;8.37;5.67;;;20.40;97.20;;;;;;1728734;28;20197;-74
2023/05/29 07:12:19;;;;;;;11.57;6.00;;;20.40;97.20;;;;;;1728875;28;20205;-75
2023/05/29 07:13:14;;;;;;;6.07;5.00;;;20.40;97.20;;;;;;1727884;28;20291;-74
2023/05/29 07:14:05;;;;;;;8.20;5.15;;;20.50;97.20;;;;;;1727760;28;20442;-74
2023/05/29 07:14:56;;;;;;;6.33;5.30;;;20.50;97.20;;;;;;1728040;28;20210;-74
2023/05/29 07:15:48;;;;;;;9.88;6.00;;;20.50;97.20;;;;;;1727494;28;20228;-75
2023/05/29 07:16:40;;;;;;;8.45;5.32;;;20.60;97.20;;;;;;1727916;28;20565;-75
2023/05/29 07:17:31;;;;;;;7.25;5.25;;;20.60;97.20;;;;;;1727773;28;20208;-75
2023/05/29 07:18:22;;;;;;;5.53;4.50;;;20.70;97.20;;;;;;1727943;28;20243;-75
2023/05/29 07:19:16;;;;;;;8.65;6.13;;;20.70;97.20;;;;;;1728015;28;20207;-73
2023/05/29 07:20:09;;;;;;;6.70;4.35;;;20.70;97.20;;;;;;1727825;28;20538;-74
2023/05/29 07:21:00;;;;;;;6.15;5.03;;;20.80;97.20;;;;;;1727753;28;20267;-74
2023/05/29 07:21:52;;;;;;;7.45;5.55;;;20.80;97.20;;;;;;1728182;28;20287;-74
2023/05/29 07:22:43;;;;;;;7.72;5.40;;;20.80;97.20;;;;;;1728012;28;20204;-74
2023/05/29 07:23:34;;;;;;;7.37;5.77;;;20.80;97.20;;;;;;1728468;28;20207;-75
2023/05/29 07:24:26;;;;;;;6.78;4.53;;;20.90;97.20;;;;;;1728173;28;20200;-74
2023/05/29 07:25:18;;;;;;;6.57;5.18;;;20.90;97.20;;;;;;1728672;28;20200;-74
2023/05/29 07:26:09;;;;;;;6.50;4.93;;;20.90;97.20;;;;;;1729043;28;20200;-74
2023/05/29 07:27:00;;;;;;;6.60;5.13;;;21.00;97.20;;;;;;1729289;28;20283;-73
2023/05/29 07:27:51;;;;;;;6.10;4.88;;;21.00;97.20;;;;;;1728622;28;20204;-74
2023/05/29 07:28:44;;;;;;;8.40;5.20;;;21.00;97.20;;;;;;1727964;28;20200;-73
2023/05/29 07:29:35;;;;;;;8.30;5.43;;;21.00;97.20;;;;;;1728639;28;20590;-73
2023/05/29 07:30:26;;;;;;;7.60;5.73;;;21.10;97.20;;;;;;1727466;28;20227;-73
2023/05/29 07:31:17;;;;;;;7.57;5.78;;;21.10;97.20;;;;;;1728006;28;20435;-74
2023/05/29 07:32:10;;;;;;;9.40;4.97;;;21.10;97.20;;;;;;1728485;28;20203;-73
2023/05/29 07:33:01;;;;;;;7.35;5.22;;;21.10;97.20;;;;;;1728349;28;20200;-73
2023/05/29 07:33:53;;;;;;;7.33;4.77;;;21.20;97.20;;;;;;1727913;28;20315;-73
2023/05/29 07:34:49;;;;;;;6.85;5.40;;;21.20;97.20;;;;;;1728467;28;20196;-74
2023/05/29 07:35:40;;;;;;;6.85;5.88;;;21.30;97.20;;;;;;1728266;28;20362;-74
2023/05/29 07:36:32;;;;;;;6.33;5.13;;;21.30;97.20;;;;;;1728375;28;20266;-74
2023/05/29 07:37:23;;;;;;;6.60;5.00;;;21.30;97.20;;;;;;1727506;28;20243;-74
2023/05/29 07:38:15;;;;;;;5.70;5.00;;;21.30;97.20;;;;;;1728123;28;20675;-74
2023/05/29 07:39:07;;;;;;;7.47;5.47;;;21.30;97.20;;;;;;1727639;28;20283;-74
2023/05/29 07:39:59;;;;;;;7.05;4.57;;;21.40;97.20;;;;;;1727832;28;20259;-74
2023/05/29 07:40:50;;;;;;;6.18;4.80;;;21.40;97.20;;;;;;1727576;28;20257;-74
2023/05/29 07:41:41;;;;;;;5.70;5.07;;;21.40;97.20;;;;;;1727750;28;20203;-74
2023/05/29 07:42:32;;;;;;;9.43;4.95;;;21.40;97.20;;;;;;1727680;28;20205;-74
2023/05/29 07:43:24;;;;;;;7.80;5.80;;;21.40;97.20;;;;;;1727699;28;20292;-74
2023/05/29 07:44:15;;;;;;;6.45;4.97;;;21.50;97.20;;;;;;1728554;28;20197;-74
2023/05/29 07:45:07;;;;;;;7.13;6.00;;;21.50;97.20;;;;;;1727653;28;20200;-74
2023/05/29 07:45:58;;;;;;;8.02;5.57;;;21.50;97.20;;;;;;1727456;28;20216;-74
2023/05/29 07:46:50;;;;;;;8.83;5.37;;;21.60;97.20;;;;;;1727609;28;20283;-74
2023/05/29 07:47:40;;;;;;;6.32;5.13;;;21.60;97.20;;;;;;1727465;28;20478;-74
2023/05/29 07:48:32;;;;;;;7.33;5.70;;;21.60;97.20;;;;;;1727624;28;20205;-74
2023/05/29 07:49:23;;;;;;;8.60;5.70;;;21.60;97.20;;;;;;1727837;28;20204;-74
2023/05/29 07:50:16;;;;;;;6.03;5.40;;;21.60;97.20;;;;;;1727614;28;20664;-74
2023/05/29 07:51:09;;;;;;;7.70;5.53;;;21.70;97.20;;;;;;1727583;28;20220;-74
2023/05/29 07:52:01;;;;;;;8.15;6.50;;;21.70;97.20;;;;;;1727656;28;20279;-74
2023/05/29 07:52:52;;;;;;;6.28;4.85;;;21.70;97.20;;;;;;1727724;28;20657;-74
2023/05/29 07:53:45;;;;;;;6.60;4.95;;;21.80;97.20;;;;;;1727531;28;20347;-74
2023/05/29 07:54:36;;;;;;;9.27;5.40;;;21.80;97.20;;;;;;1727631;28;20572;-74
2023/05/29 07:55:27;;;;;;;6.60;5.07;;;21.90;97.20;;;;;;1727513;28;20196;-74
2023/05/29 07:56:18;;;;;;;5.78;4.93;;;21.90;97.20;;;;;;1727300;28;20201;-74
2023/05/29 07:57:10;;;;;;;5.80;5.20;;;22.00;97.20;;;;;;1727527;28;20228;-74
2023/05/29 07:58:01;;;;;;;8.55;5.47;;;22.00;97.20;;;;;;1727588;28;20230;-74
2023/05/29 07:58:54;;;;;;;6.00;4.77;;;22.10;97.20;;;;;;1727623;28;20746;-74
2023/05/29 07:59:49;;;;;;;7.65;5.65;;;22.10;97.20;;;;;;1727567;28;20451;-74
2023/05/29 08:00:40;;;;;;;7.00;5.82;;;22.20;97.20;;;;;;1727468;28;20224;-74
2023/05/29 08:01:31;;;;;;;6.70;5.22;;;22.20;97.20;;;;;;1727491;28;20200;-74
2023/05/29 08:02:23;;;;;;;6.80;5.07;;;22.20;97.20;;;;;;1727583;28;20680;-74
2023/05/29 08:03:14;;;;;;;5.90;5.13;;;22.30;97.20;;;;;;1727978;28;20197;-74
2023/05/29 08:04:05;;;;;;;5.90;4.73;;;22.30;97.20;;;;;;1727299;28;20196;-74
2023/05/29 08:04:56;;;;;;;7.35;5.43;;;22.40;97.20;;;;;;1727544;28;20603;-74
2023/05/29 08:05:49;;;;;;;10.00;5.40;;;22.40;97.20;;;;;;1727403;28;20227;-74
2023/05/29 08:06:42;;;;;;;5.90;5.30;;;22.50;97.20;;;;;;1727657;28;20578;-74
2023/05/29 08:07:33;;;;;;;6.25;5.65;;;22.50;97.20;;;;;;1727524;28;20223;-74
2023/05/29 08:08:24;;;;;;;6.70;4.55;;;22.50;97.20;;;;;;1727484;28;20232;-75
2023/05/29 08:09:17;;;;;;;6.63;5.07;;;22.60;97.20;;;;;;1727721;28;20196;-75
2023/05/29 08:10:08;;;;;;;8.82;5.40;;;22.60;97.20;;;;;;1727510;28;20201;-74
2023/05/29 08:11:00;;;;;;;6.47;5.25;;;22.70;97.20;;;;;;1727454;28;20594;-74
2023/05/29 08:11:51;;;;;;;5.88;5.20;;;22.80;97.20;;;;;;1727461;28;20227;-74
2023/05/29 08:12:42;;;;;;;8.30;5.97;;;22.80;97.20;;;;;;1727486;28;20208;-74
2023/05/29 08:13:33;;;;;;;6.72;5.75;;;22.90;97.20;;;;;;1727573;28;20205;-75
2023/05/29 08:14:25;;;;;;;6.70;5.40;;;22.90;97.20;;;;;;1727593;28;20224;-75
2023/05/29 08:15:16;;;;;;;7.75;6.07;;;22.90;97.20;;;;;;1727641;28;20211;-75
2023/05/29 08:16:08;;;;;;;7.60;5.03;;;22.90;97.20;;;;;;1727305;28;20675;-74
2023/05/29 08:16:59;;;;;;;6.75;5.50;;;23.00;97.20;;;;;;1727529;28;20212;-74
2023/05/29 08:17:50;;;;;;;6.50;5.90;;;23.00;97.20;;;;;;1727515;28;20196;-75
2023/05/29 08:18:41;;;;;;;7.50;5.78;;;23.00;97.20;;;;;;1727304;28;20811;-75
2023/05/29 08:19:33;;;;;;;7.90;4.70;;;23.10;97.20;;;;;;1727029;28;20561;-74
2023/05/29 08:20:24;;;;;;;7.30;5.80;;;23.10;97.20;;;;;;1727038;28;20239;-74
2023/05/29 08:21:17;;;;;;;8.53;5.70;;;23.20;97.20;;;;;;1727547;28;20204;-74
2023/05/29 08:22:07;;;;;;;5.70;5.10;;;23.20;97.20;;;;;;1727448;28;20208;-75
2023/05/29 08:22:59;;;;;;;6.70;5.60;;;23.20;97.20;;;;;;1727565;28;20211;-74
2023/05/29 08:23:50;;;;;;;7.95;5.95;;;23.30;97.20;;;;;;1727524;28;20208;-75
2023/05/29 08:24:41;;;;;;;5.70;4.57;;;23.30;97.20;;;;;;1727567;28;20279;-74
2023/05/29 08:25:32;;;;;;;6.03;5.40;;;23.40;97.20;;;;;;1727512;28;20200;-75
2023/05/29 08:26:24;;;;;;;6.33;5.40;;;23.50;97.20;;;;;;1727323;28;20204;-74
2023/05/29 08:27:15;;;;;;;8.40;5.40;;;23.50;97.20;;;;;;1727407;28;20204;-75
2023/05/29 08:28:06;;;;;;;7.60;5.40;;;23.60;97.20;;;;;;1727486;28;20206;-74
2023/05/29 08:28:57;;;;;;;8.13;5.72;;;23.60;97.20;;;;;;1727549;28;20826;-75
2023/05/29 08:29:49;;;;;;;8.70;5.80;;;23.60;97.20;;;;;;1727424;28;20573;-75
2023/05/29 08:30:40;;;;;;;7.10;5.60;;;23.70;97.20;;;;;;1727317;28;20239;-75
2023/05/29 08:31:31;;;;;;;8.63;6.10;;;23.70;97.20;;;;;;1727497;28;20203;-74
2023/05/29 08:32:22;;;;;;;7.65;5.80;;;23.80;97.20;;;;;;1727448;28;20672;-75
2023/05/29 08:33:14;;;;;;;6.90;5.10;;;23.80;97.20;;;;;;1727749;28;20671;-74
2023/05/29 08:34:06;;;;;;;6.15;5.40;;;23.90;97.20;;;;;;1727413;28;20212;-74
2023/05/29 08:34:58;;;;;;;8.68;5.80;;;24.00;97.20;;;;;;1727531;28;20698;-75
2023/05/29 08:35:49;;;;;;;7.30;5.50;;;24.00;97.20;;;;;;1727032;28;20204;-74
2023/05/29 08:36:42;;;;;;;6.47;4.90;;;24.10;97.20;;;;;;1727547;28;20208;-74
2023/05/29 08:37:33;;;;;;;8.73;5.70;;;24.10;97.20;;;;;;1726964;28;20346;-75
2023/05/29 08:38:25;;;;;;;5.87;5.30;;;24.10;97.20;;;;;;1727439;28;20246;-75
2023/05/29 08:39:16;;;;;;;9.25;5.32;;;24.10;97.20;;;;;;1727576;28;20232;-75
2023/05/29 08:40:09;;;;;;;6.60;6.00;;;24.20;97.20;;;;;;1727535;28;20209;-74
2023/05/29 08:41:00;;;;;;;6.72;5.78;;;24.20;97.20;;;;;;1727434;28;20311;-75
2023/05/29 08:41:59;;;;;;;9.47;5.30;;;24.20;97.20;;;;;;1727676;28;20207;-75
2023/05/29 08:42:56;;;;;;;7.13;5.00;;;24.20;97.20;;;;;;1727522;28;20442;-75
2023/05/29 08:43:49;;;;;;;7.22;5.70;;;24.30;97.20;;;;;;1727417;28;20200;-74
2023/05/29 08:44:40;;;;;;;7.05;5.68;;;24.30;97.20;;;;;;1727680;28;20196;-75
2023/05/29 08:45:35;;;;;;;7.60;5.70;;;24.30;97.20;;;;;;1728078;28;20208;-75
2023/05/29 08:46:26;;;;;;;7.07;5.30;;;24.40;97.20;;;;;;1727414;28;20896;-75
2023/05/29 08:47:20;;;;;;;6.05;4.80;;;24.40;97.20;;;;;;1728007;28;20250;-75
2023/05/29 08:48:11;;;;;;;7.60;5.75;;;24.50;97.20;;;;;;1727393;28;20660;-75
2023/05/29 08:49:04;;;;;;;7.75;5.65;;;24.50;97.20;;;;;;1727883;28;20372;-74
2023/05/29 08:49:56;;;;;;;5.90;5.22;;;24.60;97.20;;;;;;1727415;28;20200;-74
2023/05/29 08:50:48;;;;;;;7.25;5.95;;;24.60;97.20;;;;;;1727406;28;20491;-75
2023/05/29 08:51:43;;;;;;;6.10;5.43;;;24.70;97.20;;;;;;1727635;28;20208;-75
2023/05/29 08:52:36;;;;;;;6.60;5.25;;;24.70;97.20;;;;;;1727445;28;20200;-75
2023/05/29 08:53:27;;;;;;;8.20;5.30;;;24.70;97.20;;;;;;1727339;28;20650;-74
2023/05/29 08:54:19;;;;;;;5.57;5.03;;;24.70;97.20;;;;;;1726928;28;20295;-75
2023/05/29 08:55:11;;;;;;;6.97;5.53;;;24.80;97.20;;;;;;1727390;28;20205;-74
2023/05/29 08:56:02;;;;;;;7.85;5.65;;;24.80;97.20;;;;;;1727086;28;20214;-74
2023/05/29 08:56:54;;;;;;;6.05;4.97;;;24.80;97.20;;;;;;1727307;28;20805;-75
2023/05/29 08:57:45;;;;;;;6.88;6.18;;;24.90;97.20;;;;;;1727502;28;20596;-75
2023/05/29 08:58:37;;;;;;;5.83;5.23;;;24.90;97.20;;;;;;1727423;28;20196;-74
2023/05/29 08:59:29;;;;;;;6.72;5.97;;;24.90;97.20;;;;;;1727602;28;20444;-75
2023/05/29 09:00:22;;;;;;;6.78;5.05;;;25.00;97.20;;;;;;1727315;28;20259;-75
2023/05/29 09:01:13;;;;;;;6.60;5.53;;;25.00;97.20;;;;;;1727313;28;20212;-75
2023/05/29 09:02:05;;;;;;;6.47;5.77;;;25.00;97.20;;;;;;1727355;28;20232;-75
2023/05/29 09:02:56;;;;;;;5.60;5.10;;;25.00;97.20;;;;;;1727295;28;20204;-75
2023/05/29 09:03:48;;;;;;;6.43;5.83;;;25.10;97.20;;;;;;1727360;28;20220;-74
2023/05/29 09:04:41;;;;;;;7.30;4.93;;;25.10;97.20;;;;;;1727367;28;20204;-75
2023/05/29 09:05:33;;;;;;;4.93;4.53;;;25.10;97.20;;;;;;1727329;28;20208;-74
2023/05/29 09:06:25;;;;;;;6.75;5.30;;;25.10;97.20;;;;;;1727053;28;20200;-75
2023/05/29 09:07:19;;;;;;;6.43;5.30;;;25.20;97.20;;;;;;1727176;28;20224;-74
2023/05/29 09:08:11;;;;;;;6.72;5.72;;;25.20;97.20;;;;;;1727374;28;20208;-74
2023/05/29 09:09:04;;;;;;;6.43;5.35;;;25.20;97.20;;;;;;1727355;28;20208;-75
2023/05/29 09:09:55;;;;;;;7.75;5.55;;;25.20;97.20;;;;;;1727298;28;20243;-75
2023/05/29 09:10:47;;;;;;;6.10;5.47;;;25.30;97.20;;;;;;1726917;28;20220;-75
2023/05/29 09:11:37;;;;;;;6.07;5.30;;;25.30;97.20;;;;;;1726635;28;20455;-75
2023/05/29 09:12:31;;;;;;;9.10;6.37;;;25.30;97.20;;;;;;1727017;28;20281;-75
2023/05/29 09:13:22;;;;;;;7.80;6.20;;;25.30;97.20;;;;;;1727386;28;20216;-74
2023/05/29 09:14:35;;;;;;;6.47;5.83;;;25.40;97.20;;;;;;1727677;28;20200;-75
2023/05/29 09:15:27;;;;;;;10.50;6.20;;;25.50;97.20;;;;;;1727395;28;20205;-75
2023/05/29 09:16:19;;;;;;;8.00;6.13;;;25.50;97.20;;;;;;1727161;28;20262;-75
2023/05/29 09:17:10;;;;;;;7.03;5.60;;;25.60;97.20;;;;;;1727752;28;20211;-74
2023/05/29 09:18:04;;;;;;;6.13;5.05;;;25.60;97.20;;;;;;1727533;28;20207;-74
2023/05/29 09:19:04;;;;;;;6.43;5.50;;;25.70;97.20;;;;;;1727363;28;20259;-74
2023/05/29 09:19:56;;;;;;;7.05;5.95;;;25.70;97.20;;;;;;1727784;28;20201;-74
2023/05/29 09:20:48;;;;;;;5.57;5.00;;;25.80;97.20;;;;;;1727409;28;20575;-74
2023/05/29 09:21:40;;;;;;;7.60;5.22;;;25.80;97.20;;;;;;1727363;28;20204;-74
2023/05/29 09:22:32;;;;;;;6.32;5.65;;;25.80;97.20;;;;;;1727938;28;20211;-74
2023/05/29 09:23:26;;;;;;;9.73;5.57;;;25.90;97.20;;;;;;1727787;28;20684;-74
2023/05/29 09:24:17;;;;;;;6.60;5.90;;;25.90;97.20;;;;;;1727494;28;20509;-74
2023/05/29 09:25:09;;;;;;;8.53;6.27;;;26.00;97.20;;;;;;1727492;28;20201;-74
2023/05/29 09:26:02;;;;;;;6.22;5.63;;;26.00;97.20;;;;;;1726942;28;20452;-74
2023/05/29 09:26:55;;;;;;;7.03;6.32;;;26.10;97.20;;;;;;1727529;28;20204;-74
2023/05/29 09:27:46;;;;;;;6.57;5.63;;;26.10;97.20;;;;;;1727445;28;20208;-74
2023/05/29 09:28:38;;;;;;;6.70;5.60;;;26.10;97.20;;;;;;1727311;28;20279;-74